Time;durP1;ratioP1;P1;durP2;ratioP2;P2;SDS_P1;SDS_P2;PMS_P1;PMS_P2;Temp;Humidity;BMP_temperature;BMP_pressure;BME280_temperature;BME280_humidity;BME280_pressure;Samples;Min_cycle;Max_cycle;Signal;HPM_P1;HPM_P2
2024/01/17 00:00:33;;;;;;;31.50;30.35;;;;;;;;;;4163270;28;20075;-62
2024/01/17 00:02:35;;;;;;;36.38;33.95;;;;;;;;;;4144341;28;20045;-62
2024/01/17 00:04:37;;;;;;;34.77;33.50;;;;;;;;;;4147601;28;20136;-62
2024/01/17 00:06:38;;;;;;;33.88;32.38;;;;;;;;;;4132719;28;20293;-62
2024/01/17 00:08:40;;;;;;;35.88;34.28;;;;;;;;;;4137051;28;20038;-63
2024/01/17 00:10:42;;;;;;;33.30;31.80;;;;;;;;;;4139675;28;20157;-63
2024/01/17 00:12:44;;;;;;;29.05;27.75;;;;;;;;;;4131724;28;20046;-62
2024/01/17 00:14:46;;;;;;;33.83;31.80;;;;;;;;;;4131784;28;20038;-62
2024/01/17 00:16:47;;;;;;;33.15;31.75;;;;;;;;;;4131690;28;20038;-63
2024/01/17 00:18:49;;;;;;;32.10;30.60;;;;;;;;;;4131842;28;20100;-63
2024/01/17 00:20:51;;;;;;;33.38;31.65;;;;;;;;;;4131405;28;20034;-63
2024/01/17 00:22:54;;;;;;;30.65;29.27;;;;;;;;;;4130279;28;20068;-63
2024/01/17 00:24:55;;;;;;;34.90;33.08;;;;;;;;;;4134767;28;20406;-63
2024/01/17 00:26:59;;;;;;;30.65;29.25;;;;;;;;;;4147395;28;20038;-63
2024/01/17 00:29:01;;;;;;;32.53;31.00;;;;;;;;;;4147525;28;20048;-63
2024/01/17 00:31:03;;;;;;;29.93;28.90;;;;;;;;;;4147857;28;20072;-64
2024/01/17 00:33:05;;;;;;;36.05;33.80;;;;;;;;;;4151928;28;20038;-63
2024/01/17 00:35:08;;;;;;;34.10;32.47;;;;;;;;;;4164192;28;20038;-63
2024/01/17 00:37:10;;;;;;;35.45;33.55;;;;;;;;;;4164109;28;20172;-63
2024/01/17 00:39:13;;;;;;;36.63;34.77;;;;;;;;;;4164261;28;20129;-63
2024/01/17 00:41:16;;;;;;;34.42;32.83;;;;;;;;;;4151698;28;20076;-63
2024/01/17 00:43:21;;;;;;;31.75;30.25;;;;;;;;;;4147698;28;20042;-64
2024/01/17 00:45:22;;;;;;;35.33;33.42;;;;;;;;;;4147560;28;20116;-63
2024/01/17 00:47:24;;;;;;;37.53;34.97;;;;;;;;;;4147700;28;20038;-64
2024/01/17 00:49:26;;;;;;;36.33;34.08;;;;;;;;;;4147842;28;20038;-63
2024/01/17 00:51:28;;;;;;;37.95;35.88;;;;;;;;;;4154867;28;20460;-64
2024/01/17 00:53:30;;;;;;;32.10;30.90;;;;;;;;;;4163775;28;20048;-63
2024/01/17 00:55:32;;;;;;;27.13;26.33;;;;;;;;;;4165743;28;20045;-63
2024/01/17 00:57:33;;;;;;;28.85;27.83;;;;;;;;;;4166774;28;20041;-63
2024/01/17 00:59:35;;;;;;;28.63;27.73;;;;;;;;;;4167151;28;20051;-64
2024/01/17 01:01:37;;;;;;;29.63;28.60;;;;;;;;;;4166647;28;20128;-64
2024/01/17 01:03:39;;;;;;;26.08;25.20;;;;;;;;;;4165514;28;20057;-63
2024/01/17 01:05:46;;;;;;;26.92;26.05;;;;;;;;;;4149350;28;20038;-63
2024/01/17 01:07:47;;;;;;;30.23;29.05;;;;;;;;;;4150547;28;20490;-63
2024/01/17 01:09:49;;;;;;;29.08;27.67;;;;;;;;;;4150061;28;20040;-63
2024/01/17 01:11:52;;;;;;;25.48;24.63;;;;;;;;;;4148994;28;20050;-63
2024/01/17 01:13:54;;;;;;;30.52;29.20;;;;;;;;;;4150634;28;20096;-63
2024/01/17 01:15:55;;;;;;;27.87;26.67;;;;;;;;;;4150659;28;20049;-63
2024/01/17 01:17:57;;;;;;;30.25;28.77;;;;;;;;;;4150491;28;20100;-63
2024/01/17 01:19:59;;;;;;;29.10;28.13;;;;;;;;;;4150355;28;20041;-63
2024/01/17 01:22:00;;;;;;;29.87;28.33;;;;;;;;;;4150397;28;20124;-63
2024/01/17 01:24:04;;;;;;;28.95;27.35;;;;;;;;;;4149060;28;20054;-63
2024/01/17 01:26:06;;;;;;;31.25;29.17;;;;;;;;;;4148762;28;20398;-63
2024/01/17 01:28:08;;;;;;;30.13;27.77;;;;;;;;;;4150479;28;20045;-62
2024/01/17 01:30:10;;;;;;;30.63;28.33;;;;;;;;;;4149979;28;20717;-63
2024/01/17 01:32:12;;;;;;;31.08;29.25;;;;;;;;;;4150288;28;20315;-63
2024/01/17 01:34:13;;;;;;;28.57;27.10;;;;;;;;;;4162187;28;20041;-63
2024/01/17 01:36:18;;;;;;;30.65;28.63;;;;;;;;;;4164147;28;20316;-63
2024/01/17 01:38:20;;;;;;;30.65;29.05;;;;;;;;;;4150146;28;20124;-63
2024/01/17 01:40:21;;;;;;;33.03;30.63;;;;;;;;;;4149671;28;20049;-63
2024/01/17 01:42:25;;;;;;;30.23;27.70;;;;;;;;;;4148543;28;20053;-63
2024/01/17 01:44:27;;;;;;;29.65;27.85;;;;;;;;;;4150040;28;20484;-63
2024/01/17 01:46:29;;;;;;;32.00;29.67;;;;;;;;;;4149648;28;20033;-63
2024/01/17 01:48:31;;;;;;;30.25;28.45;;;;;;;;;;4149945;28;20038;-63
2024/01/17 01:50:33;;;;;;;26.88;25.70;;;;;;;;;;4149765;28;20045;-62
2024/01/17 01:52:38;;;;;;;27.60;26.17;;;;;;;;;;4134072;28;20108;-63
2024/01/17 01:54:39;;;;;;;31.33;29.27;;;;;;;;;;4165916;28;20041;-63
2024/01/17 01:56:42;;;;;;;29.27;27.95;;;;;;;;;;4164783;28;20044;-63
2024/01/17 01:58:45;;;;;;;31.80;30.40;;;;;;;;;;4165342;28;20049;-63
2024/01/17 02:00:48;;;;;;;29.80;27.90;;;;;;;;;;4165551;28;20108;-63
2024/01/17 02:02:49;;;;;;;27.95;26.45;;;;;;;;;;4155910;28;20444;-63
2024/01/17 02:04:52;;;;;;;27.70;26.30;;;;;;;;;;4149354;28;20164;-63
2024/01/17 02:06:54;;;;;;;28.73;27.58;;;;;;;;;;4149001;28;20323;-63
2024/01/17 02:08:57;;;;;;;27.88;26.17;;;;;;;;;;4149425;28;20188;-63
2024/01/17 02:10:58;;;;;;;27.50;26.00;;;;;;;;;;4149361;28;20124;-64
2024/01/17 02:13:01;;;;;;;31.30;29.23;;;;;;;;;;4149718;28;20478;-64
2024/01/17 02:15:03;;;;;;;32.17;29.02;;;;;;;;;;4149693;28;20061;-63
2024/01/17 02:17:05;;;;;;;30.05;28.40;;;;;;;;;;4149464;28;20076;-63
2024/01/17 02:19:07;;;;;;;30.90;29.13;;;;;;;;;;4149520;28;20038;-64
2024/01/17 02:21:11;;;;;;;28.58;27.10;;;;;;;;;;4149430;28;20692;-63
2024/01/17 02:23:22;;;;;;;30.02;27.90;;;;;;;;;;4148341;28;20042;-64
2024/01/17 02:25:24;;;;;;;27.80;26.45;;;;;;;;;;4149299;28;20104;-63
2024/01/17 02:27:26;;;;;;;29.88;28.35;;;;;;;;;;4149348;28;20121;-64
2024/01/17 02:29:30;;;;;;;28.90;26.97;;;;;;;;;;4149494;28;20048;-64
2024/01/17 02:31:32;;;;;;;28.35;26.27;;;;;;;;;;4149041;28;20042;-64
2024/01/17 02:33:34;;;;;;;29.42;28.13;;;;;;;;;;4157278;28;20136;-63
2024/01/17 02:35:37;;;;;;;28.92;26.23;;;;;;;;;;4165293;28;20456;-63
2024/01/17 02:37:39;;;;;;;29.33;27.42;;;;;;;;;;4156724;28;20069;-64
2024/01/17 02:39:40;;;;;;;26.88;25.20;;;;;;;;;;4149211;28;20041;-62
2024/01/17 02:41:43;;;;;;;27.50;26.03;;;;;;;;;;4148981;28;20568;-63
2024/01/17 02:43:45;;;;;;;29.48;27.35;;;;;;;;;;4148896;28;20284;-63
2024/01/17 02:45:46;;;;;;;28.20;26.35;;;;;;;;;;4147957;28;20120;-63
2024/01/17 02:47:48;;;;;;;28.45;26.23;;;;;;;;;;4148834;28;20121;-63
2024/01/17 02:49:50;;;;;;;30.35;28.33;;;;;;;;;;4156925;28;20044;-62
2024/01/17 02:51:52;;;;;;;29.25;27.70;;;;;;;;;;4165091;28;20400;-63
2024/01/17 02:53:53;;;;;;;30.07;28.00;;;;;;;;;;4165198;28;20104;-62
2024/01/17 02:55:55;;;;;;;32.35;30.30;;;;;;;;;;4165226;28;20037;-63
2024/01/17 02:57:57;;;;;;;32.10;30.00;;;;;;;;;;4165301;28;20045;-63
2024/01/17 02:59:58;;;;;;;31.23;29.27;;;;;;;;;;4165084;28;20061;-62
2024/01/17 03:02:00;;;;;;;32.05;30.25;;;;;;;;;;4161563;28;20338;-63
2024/01/17 03:04:05;;;;;;;31.45;29.92;;;;;;;;;;4155078;28;20460;-63
2024/01/17 03:06:07;;;;;;;30.33;28.33;;;;;;;;;;4148650;28;20124;-63
2024/01/17 03:08:09;;;;;;;32.38;30.10;;;;;;;;;;4148540;28;20288;-63
2024/01/17 03:10:12;;;;;;;30.05;28.48;;;;;;;;;;4148545;28;20038;-63
2024/01/17 03:12:14;;;;;;;30.95;29.23;;;;;;;;;;4148559;28;20057;-63
2024/01/17 03:14:16;;;;;;;29.20;27.88;;;;;;;;;;4147857;28;20030;-64
2024/01/17 03:16:19;;;;;;;28.45;26.90;;;;;;;;;;4145831;28;20037;-62
2024/01/17 03:18:23;;;;;;;32.80;30.70;;;;;;;;;;4146367;28;20053;-63
2024/01/17 03:20:25;;;;;;;33.03;31.17;;;;;;;;;;4146743;28;20049;-63
2024/01/17 03:22:27;;;;;;;32.63;30.27;;;;;;;;;;4148539;28;20401;-63
2024/01/17 03:24:29;;;;;;;32.55;30.05;;;;;;;;;;4148465;28;20148;-63
2024/01/17 03:26:31;;;;;;;30.63;28.25;;;;;;;;;;4147902;28;20041;-63
2024/01/17 03:28:33;;;;;;;27.90;26.38;;;;;;;;;;4148513;28;20149;-63
2024/01/17 03:30:37;;;;;;;32.95;30.50;;;;;;;;;;4148291;28;20038;-62
2024/01/17 03:32:39;;;;;;;34.90;32.00;;;;;;;;;;4148833;28;20465;-63
2024/01/17 03:34:41;;;;;;;32.00;29.40;;;;;;;;;;4149398;28;20088;-63
2024/01/17 03:36:45;;;;;;;31.33;28.98;;;;;;;;;;4148329;28;20121;-63
2024/01/17 03:38:47;;;;;;;32.15;29.23;;;;;;;;;;4148176;28;20117;-63
2024/01/17 03:40:55;;;;;;;34.92;32.25;;;;;;;;;;4148100;28;20042;-63
2024/01/17 03:42:56;;;;;;;35.25;32.72;;;;;;;;;;4148276;28;20042;-63
2024/01/17 03:45:00;;;;;;;33.25;30.92;;;;;;;;;;4148172;28;20046;-63
2024/01/17 03:47:02;;;;;;;34.22;31.35;;;;;;;;;;4163518;28;20046;-63
2024/01/17 03:49:06;;;;;;;30.73;28.67;;;;;;;;;;4164396;28;20068;-63
2024/01/17 03:51:08;;;;;;;34.83;31.55;;;;;;;;;;4159501;28;20072;-63
2024/01/17 03:53:09;;;;;;;33.70;31.33;;;;;;;;;;4148135;28;20053;-63
2024/01/17 03:55:11;;;;;;;32.55;30.48;;;;;;;;;;4148159;28;20465;-62
2024/01/17 03:57:13;;;;;;;30.17;28.35;;;;;;;;;;4148048;28;20125;-62
2024/01/17 03:59:15;;;;;;;34.95;32.42;;;;;;;;;;4148056;28;20092;-63
2024/01/17 04:01:24;;;;;;;30.80;29.00;;;;;;;;;;4147675;28;20038;-63
2024/01/17 04:03:25;;;;;;;34.10;31.67;;;;;;;;;;4147786;28;20037;-62
2024/01/17 04:05:27;;;;;;;33.22;31.33;;;;;;;;;;4147547;28;20058;-63
2024/01/17 04:07:29;;;;;;;32.85;30.58;;;;;;;;;;4147792;28;20097;-63
2024/01/17 04:09:31;;;;;;;34.63;31.38;;;;;;;;;;4146586;28;20092;-63
2024/01/17 04:11:33;;;;;;;33.30;30.90;;;;;;;;;;4147554;28;20042;-62
2024/01/17 04:13:35;;;;;;;31.15;29.10;;;;;;;;;;4148006;28;20362;-63
2024/01/17 04:15:36;;;;;;;33.13;30.47;;;;;;;;;;4148129;28;20113;-62
2024/01/17 04:17:38;;;;;;;31.17;29.17;;;;;;;;;;4147850;28;20125;-63
2024/01/17 04:19:41;;;;;;;31.30;29.13;;;;;;;;;;4146498;28;20128;-63
2024/01/17 04:21:42;;;;;;;33.90;31.98;;;;;;;;;;4147524;28;20046;-63
2024/01/17 04:23:44;;;;;;;31.83;29.57;;;;;;;;;;4147926;28;20057;-62
2024/01/17 04:25:46;;;;;;;31.80;29.40;;;;;;;;;;4147670;28;20288;-63
2024/01/17 04:27:48;;;;;;;30.87;28.63;;;;;;;;;;4147481;28;20437;-64
2024/01/17 04:29:49;;;;;;;29.53;27.37;;;;;;;;;;4150543;28;20092;-63
2024/01/17 04:31:52;;;;;;;31.33;29.10;;;;;;;;;;4151067;28;20037;-63
2024/01/17 04:33:55;;;;;;;33.78;31.88;;;;;;;;;;4161700;28;20334;-63
2024/01/17 04:35:57;;;;;;;;;;;;;;;;;;4167630;28;20124;-63
2024/01/17 04:38:00;;;;;;;35.72;33.08;;;;;;;;;;4167434;28;19948;-63
2024/01/17 04:40:01;;;;;;;31.23;29.33;;;;;;;;;;4167285;28;20074;-63
2024/01/17 04:42:03;;;;;;;30.80;29.07;;;;;;;;;;4167064;28;20284;-63
2024/01/17 04:44:05;;;;;;;30.52;28.25;;;;;;;;;;4167322;28;20288;-63
2024/01/17 04:46:09;;;;;;;31.73;29.52;;;;;;;;;;4167323;28;20037;-63
2024/01/17 04:48:13;;;;;;;34.60;32.60;;;;;;;;;;4167082;28;20034;-63
2024/01/17 04:50:15;;;;;;;31.95;30.38;;;;;;;;;;4167109;28;20057;-63
2024/01/17 04:52:18;;;;;;;32.83;30.83;;;;;;;;;;4167274;28;20412;-63
2024/01/17 04:54:20;;;;;;;;;;;;;;;;;;4167592;28;20056;-63
2024/01/17 04:56:21;;;;;;;34.25;32.17;;;;;;;;;;4166977;28;19921;-63
2024/01/17 04:58:23;;;;;;;30.48;28.30;;;;;;;;;;4165995;28;20080;-62
2024/01/17 05:00:25;;;;;;;34.87;32.80;;;;;;;;;;4166809;28;20124;-63
2024/01/17 05:02:26;;;;;;;31.85;29.02;;;;;;;;;;4159975;28;20042;-63
2024/01/17 05:04:28;;;;;;;30.52;28.73;;;;;;;;;;4150389;28;20045;-63
2024/01/17 05:06:33;;;;;;;33.53;31.73;;;;;;;;;;4150489;28;20045;-63
2024/01/17 05:08:35;;;;;;;30.90;29.33;;;;;;;;;;4149926;28;20125;-63
2024/01/17 05:10:46;;;;;;;31.83;29.85;;;;;;;;;;4149993;28;20046;-63
2024/01/17 05:12:47;;;;;;;32.75;29.88;;;;;;;;;;4148821;28;20045;-63
2024/01/17 05:14:49;;;;;;;34.03;31.13;;;;;;;;;;4150132;28;20038;-62
2024/01/17 05:16:51;;;;;;;33.50;31.23;;;;;;;;;;4148907;28;20033;-63
2024/01/17 05:18:53;;;;;;;34.20;32.05;;;;;;;;;;4146892;28;20053;-62
2024/01/17 05:20:55;;;;;;;31.13;28.92;;;;;;;;;;4148836;28;20086;-63
2024/01/17 05:22:57;;;;;;;32.55;30.10;;;;;;;;;;4150431;28;20050;-62
2024/01/17 05:24:59;;;;;;;32.55;29.88;;;;;;;;;;4150348;28;20042;-63
2024/01/17 05:27:00;;;;;;;31.73;29.60;;;;;;;;;;4150235;28;20049;-63
2024/01/17 05:29:02;;;;;;;32.23;30.37;;;;;;;;;;4149900;28;20469;-63
2024/01/17 05:31:04;;;;;;;35.15;32.53;;;;;;;;;;4150215;28;20046;-63
2024/01/17 05:33:06;;;;;;;32.92;30.73;;;;;;;;;;4150076;28;20554;-63
2024/01/17 05:35:08;;;;;;;33.65;30.40;;;;;;;;;;4150241;28;20421;-64
2024/01/17 05:37:10;;;;;;;30.52;27.85;;;;;;;;;;4150192;28;20044;-64
2024/01/17 05:39:12;;;;;;;32.13;29.77;;;;;;;;;;4149845;28;20077;-64
2024/01/17 05:41:14;;;;;;;33.35;31.20;;;;;;;;;;4149406;28;20066;-63
2024/01/17 05:43:15;;;;;;;34.80;31.67;;;;;;;;;;4150142;28;20367;-64
2024/01/17 05:45:17;;;;;;;31.15;29.45;;;;;;;;;;4148388;28;20123;-64
2024/01/17 05:47:19;;;;;;;30.90;28.48;;;;;;;;;;4147388;28;20168;-64
2024/01/17 05:49:21;;;;;;;33.35;31.27;;;;;;;;;;4146238;28;20038;-64
2024/01/17 05:51:22;;;;;;;31.57;29.47;;;;;;;;;;4149783;28;20544;-64
2024/01/17 05:53:24;;;;;;;31.42;28.95;;;;;;;;;;4149923;28;20284;-64
2024/01/17 05:55:26;;;;;;;37.65;29.92;;;;;;;;;;4147803;28;20078;-63
2024/01/17 05:57:28;;;;;;;30.60;28.67;;;;;;;;;;4149630;28;20070;-64
2024/01/17 05:59:30;;;;;;;31.55;28.85;;;;;;;;;;4150012;28;20038;-64
2024/01/17 06:01:34;;;;;;;33.20;31.20;;;;;;;;;;4149442;28;20120;-63
2024/01/17 06:03:35;;;;;;;31.25;29.23;;;;;;;;;;4147984;28;20133;-64
2024/01/17 06:05:37;;;;;;;32.88;30.65;;;;;;;;;;4147531;28;20054;-65
2024/01/17 06:07:40;;;;;;;32.35;30.33;;;;;;;;;;4149418;28;20042;-64
2024/01/17 06:09:43;;;;;;;31.83;29.67;;;;;;;;;;4149615;28;20117;-63
2024/01/17 06:11:45;;;;;;;32.22;30.33;;;;;;;;;;4148313;28;20093;-62
2024/01/17 06:13:46;;;;;;;31.53;29.43;;;;;;;;;;4143605;28;20068;-64
2024/01/17 06:15:48;;;;;;;30.42;28.48;;;;;;;;;;4144458;28;20096;-65
2024/01/17 06:17:50;;;;;;;29.42;28.00;;;;;;;;;;4147520;28;20390;-64
2024/01/17 06:19:51;;;;;;;31.15;29.52;;;;;;;;;;4147987;28;20515;-64
2024/01/17 06:21:53;;;;;;;32.30;30.73;;;;;;;;;;4149321;28;20124;-63
2024/01/17 06:23:55;;;;;;;30.63;28.90;;;;;;;;;;4149288;28;20441;-64
2024/01/17 06:25:57;;;;;;;25.40;24.30;;;;;;;;;;4149154;28;20688;-63
2024/01/17 06:27:58;;;;;;;32.30;30.42;;;;;;;;;;4149245;28;20048;-63
2024/01/17 06:30:00;;;;;;;33.85;31.33;;;;;;;;;;4149169;28;20100;-64
2024/01/17 06:32:03;;;;;;;32.40;30.42;;;;;;;;;;4149219;28;20092;-64
2024/01/17 06:34:05;;;;;;;33.85;31.80;;;;;;;;;;4161444;28;20091;-64
2024/01/17 06:36:09;;;;;;;31.02;29.52;;;;;;;;;;4165556;28;20095;-64
2024/01/17 06:38:11;;;;;;;33.53;31.60;;;;;;;;;;4164271;28;20067;-64
2024/01/17 06:40:12;;;;;;;33.70;31.83;;;;;;;;;;4165645;28;20103;-66
2024/01/17 06:42:16;;;;;;;34.57;31.90;;;;;;;;;;4165493;28;20458;-66
2024/01/17 06:44:18;;;;;;;34.72;31.90;;;;;;;;;;4165465;28;20069;-66
2024/01/17 06:46:22;;;;;;;33.40;30.58;;;;;;;;;;4165169;28;20046;-66
2024/01/17 06:48:23;;;;;;;34.33;32.10;;;;;;;;;;4165338;28;20393;-66
2024/01/17 06:50:25;;;;;;;32.83;31.00;;;;;;;;;;4164122;28;20280;-66
2024/01/17 06:52:27;;;;;;;31.70;30.00;;;;;;;;;;4165238;28;20468;-65
2024/01/17 06:54:29;;;;;;;29.83;27.27;;;;;;;;;;4165039;28;20041;-65
2024/01/17 06:56:32;;;;;;;30.98;29.35;;;;;;;;;;4165200;28;20037;-66
2024/01/17 06:58:36;;;;;;;33.85;31.83;;;;;;;;;;4165249;28;20040;-66
2024/01/17 07:00:38;;;;;;;31.95;29.80;;;;;;;;;;4155356;28;20236;-65
2024/01/17 07:02:40;;;;;;;32.53;30.35;;;;;;;;;;4148570;28;20112;-66
2024/01/17 07:04:42;;;;;;;33.70;31.38;;;;;;;;;;4148494;28;20045;-65
2024/01/17 07:06:44;;;;;;;32.72;30.88;;;;;;;;;;4163696;28;20065;-65
2024/01/17 07:08:46;;;;;;;28.60;27.30;;;;;;;;;;4146832;28;20046;-66
2024/01/17 07:10:47;;;;;;;35.15;32.60;;;;;;;;;;4148417;28;20120;-65
2024/01/17 07:12:50;;;;;;;33.10;31.43;;;;;;;;;;4148769;28;20042;-65
2024/01/17 07:14:54;;;;;;;30.70;28.70;;;;;;;;;;4148549;28;20376;-66
2024/01/17 07:16:56;;;;;;;32.80;30.30;;;;;;;;;;4148583;28;20529;-65
2024/01/17 07:18:58;;;;;;;31.67;30.03;;;;;;;;;;4148416;28;20084;-65
2024/01/17 07:21:05;;;;;;;34.92;32.97;;;;;;;;;;4148343;28;20331;-66
2024/01/17 07:23:08;;;;;;;31.55;29.40;;;;;;;;;;4132196;28;20089;-66
2024/01/17 07:25:10;;;;;;;33.15;31.55;;;;;;;;;;4131988;28;20042;-66
2024/01/17 07:27:12;;;;;;;32.13;30.25;;;;;;;;;;4147394;28;20120;-65
2024/01/17 07:29:13;;;;;;;32.40;30.65;;;;;;;;;;4148087;28;20084;-66
2024/01/17 07:31:16;;;;;;;30.60;29.17;;;;;;;;;;4148149;28;20041;-65
2024/01/17 07:33:17;;;;;;;29.65;28.17;;;;;;;;;;4153879;28;20284;-66
2024/01/17 07:35:19;;;;;;;29.45;27.75;;;;;;;;;;4164475;28;20065;-66
2024/01/17 07:37:21;;;;;;;31.13;29.23;;;;;;;;;;4164744;28;20090;-65
2024/01/17 07:39:23;;;;;;;30.63;29.33;;;;;;;;;;4164710;28;20120;-65
2024/01/17 07:41:24;;;;;;;28.92;27.77;;;;;;;;;;4164460;28;20046;-65
2024/01/17 07:43:26;;;;;;;29.37;28.13;;;;;;;;;;4164298;28;20042;-66
2024/01/17 07:45:28;;;;;;;29.38;28.20;;;;;;;;;;4164340;28;20520;-65
2024/01/17 07:47:30;;;;;;;30.05;28.75;;;;;;;;;;4164376;28;20045;-66
2024/01/17 07:49:35;;;;;;;29.80;28.67;;;;;;;;;;4164439;28;20519;-65
2024/01/17 07:51:37;;;;;;;27.05;25.95;;;;;;;;;;4164222;28;20052;-65
2024/01/17 07:53:39;;;;;;;31.10;29.40;;;;;;;;;;4163072;28;20504;-66
2024/01/17 07:55:40;;;;;;;28.50;27.40;;;;;;;;;;4164137;28;20038;-66
2024/01/17 07:57:42;;;;;;;30.47;28.90;;;;;;;;;;4163322;28;20038;-65
2024/01/17 07:59:43;;;;;;;32.33;30.47;;;;;;;;;;4148101;28;20046;-65
2024/01/17 08:01:45;;;;;;;32.50;31.20;;;;;;;;;;4147697;28;20046;-66
2024/01/17 08:03:47;;;;;;;32.92;31.17;;;;;;;;;;4147374;28;20834;-66
2024/01/17 08:05:48;;;;;;;32.45;30.55;;;;;;;;;;4147546;28;20124;-65
2024/01/17 08:07:50;;;;;;;32.80;31.05;;;;;;;;;;4148043;28;20103;-66
2024/01/17 08:09:52;;;;;;;31.10;28.83;;;;;;;;;;4146188;28;20527;-65
2024/01/17 08:14:47;;;;;;;31.45;29.33;;;;;;;;;;4245630;27;20111;-66
2024/01/17 08:16:49;;;;;;;33.53;31.38;;;;;;;;;;4245749;28;20035;-66
2024/01/17 08:18:50;;;;;;;32.65;30.92;;;;;;;;;;4245667;28;20047;-65
2024/01/17 08:20:52;;;;;;;33.92;32.20;;;;;;;;;;4245343;28;20128;-66
2024/01/17 08:22:54;;;;;;;31.02;29.92;;;;;;;;;;4245450;28;20043;-65
2024/01/17 08:24:56;;;;;;;33.92;32.10;;;;;;;;;;4245821;28;20063;-65
2024/01/17 08:26:58;;;;;;;30.23;28.67;;;;;;;;;;4240111;28;20064;-65
2024/01/17 08:28:59;;;;;;;31.27;29.92;;;;;;;;;;4228432;28;20630;-65
2024/01/17 08:31:01;;;;;;;32.40;30.00;;;;;;;;;;4228380;28;20115;-64
2024/01/17 08:33:03;;;;;;;33.07;31.07;;;;;;;;;;4236020;27;20352;-64
2024/01/17 08:35:06;;;;;;;31.17;29.60;;;;;;;;;;4262595;27;20031;-64
2024/01/17 08:37:08;;;;;;;35.08;32.83;;;;;;;;;;4262280;27;20039;-64
2024/01/17 08:39:10;;;;;;;30.48;29.23;;;;;;;;;;4262494;27;20039;-63
2024/01/17 08:41:12;;;;;;;29.30;27.60;;;;;;;;;;4262418;27;20470;-64
2024/01/17 08:43:14;;;;;;;26.47;25.60;;;;;;;;;;4262130;27;20050;-65
2024/01/17 08:45:18;;;;;;;28.53;27.33;;;;;;;;;;4262146;27;20039;-64
2024/01/17 08:47:20;;;;;;;27.75;26.40;;;;;;;;;;4262395;27;20292;-65
2024/01/17 08:49:21;;;;;;;28.02;26.95;;;;;;;;;;4262304;27;20039;-64
2024/01/17 08:51:26;;;;;;;28.42;27.13;;;;;;;;;;4255006;27;20051;-64
2024/01/17 08:53:30;;;;;;;27.88;26.75;;;;;;;;;;4245065;27;20037;-65
2024/01/17 08:57:13;;;;;;;28.83;27.60;;;;;;;;;;4211627;27;20105;-66
2024/01/17 09:29:09;;;;;;;33.88;32.40;;;;;;;;;;4261416;27;20323;-64
2024/01/17 09:31:11;;;;;;;31.27;30.08;;;;;;;;;;4228624;28;20047;-64
2024/01/17 09:33:13;;;;;;;34.20;32.63;;;;;;;;;;4234134;28;20035;-64
2024/01/17 09:35:15;;;;;;;32.40;30.55;;;;;;;;;;4245750;27;20053;-63
2024/01/17 09:37:17;;;;;;;31.35;29.88;;;;;;;;;;4246049;27;20045;-65
2024/01/17 09:39:19;;;;;;;32.10;30.27;;;;;;;;;;4244531;28;20052;-64
2024/01/17 09:41:23;;;;;;;31.00;29.58;;;;;;;;;;4245696;27;20281;-65
2024/01/17 09:43:25;;;;;;;30.48;28.52;;;;;;;;;;4245620;27;20460;-65
2024/01/17 09:45:29;;;;;;;30.20;28.60;;;;;;;;;;4245362;27;20039;-65
2024/01/17 09:47:31;;;;;;;29.10;27.90;;;;;;;;;;4245633;27;20035;-65
2024/01/17 09:49:33;;;;;;;30.48;29.05;;;;;;;;;;4234040;28;20088;-66
2024/01/17 09:51:35;;;;;;;29.63;28.38;;;;;;;;;;4228431;28;20036;-65
2024/01/17 09:53:38;;;;;;;30.35;28.63;;;;;;;;;;4228619;28;20067;-65
2024/01/17 09:55:40;;;;;;;29.98;28.67;;;;;;;;;;4228456;28;20039;-65
2024/01/17 09:57:48;;;;;;;30.20;28.35;;;;;;;;;;4228430;28;20040;-65
2024/01/17 09:59:51;;;;;;;28.70;27.38;;;;;;;;;;4228371;28;20411;-66
2024/01/17 10:01:54;;;;;;;29.48;28.42;;;;;;;;;;4227783;28;20442;-66
2024/01/17 10:03:57;;;;;;;28.90;27.58;;;;;;;;;;4228253;28;20040;-65
2024/01/17 10:05:59;;;;;;;27.58;26.60;;;;;;;;;;4227838;28;20115;-65
2024/01/17 10:08:02;;;;;;;28.60;26.75;;;;;;;;;;4227924;28;20115;-66
2024/01/17 10:10:04;;;;;;;28.17;26.83;;;;;;;;;;4228202;28;20035;-65
2024/01/17 10:12:06;;;;;;;30.02;28.52;;;;;;;;;;4228073;28;20396;-65
2024/01/17 10:14:08;;;;;;;30.95;29.10;;;;;;;;;;4227959;28;20118;-66
2024/01/17 10:16:11;;;;;;;30.50;29.30;;;;;;;;;;4227996;28;20040;-65
2024/01/17 10:18:13;;;;;;;31.92;29.48;;;;;;;;;;4227877;28;20032;-65
2024/01/17 10:20:16;;;;;;;30.75;29.02;;;;;;;;;;4215850;28;20071;-66
2024/01/17 10:22:19;;;;;;;;;;;;;;;;;;4211540;28;20499;-65
2024/01/17 10:24:20;;;;;;;33.67;31.48;;;;;;;;;;4211088;28;20432;-65
2024/01/17 10:26:22;;;;;;;31.52;29.98;;;;;;;;;;4210920;28;20102;-65
2024/01/17 10:28:24;;;;;;;33.10;31.45;;;;;;;;;;4210858;28;20056;-66
2024/01/17 10:30:26;;;;;;;34.30;31.67;;;;;;;;;;4211078;28;20147;-65
2024/01/17 10:32:28;;;;;;;34.22;32.40;;;;;;;;;;4211072;28;20817;-65
2024/01/17 10:34:30;;;;;;;33.92;31.25;;;;;;;;;;4243294;28;20130;-65
2024/01/17 10:36:33;;;;;;;33.28;31.13;;;;;;;;;;4244703;27;20120;-65
2024/01/17 10:38:35;;;;;;;33.55;31.73;;;;;;;;;;4244764;27;20043;-64
2024/01/17 10:40:42;;;;;;;32.78;31.50;;;;;;;;;;4232741;27;20035;-65
2024/01/17 10:42:44;;;;;;;32.63;30.92;;;;;;;;;;4232167;28;20044;-65
2024/01/17 10:44:46;;;;;;;32.20;31.00;;;;;;;;;;4211811;28;20054;-64
2024/01/17 10:46:48;;;;;;;32.93;31.23;;;;;;;;;;4204167;28;20044;-65
2024/01/17 10:48:50;;;;;;;32.78;31.55;;;;;;;;;;4207324;28;20355;-65
2024/01/17 10:50:52;;;;;;;;;;;;;;;;;;4214173;28;20036;-65
2024/01/17 10:52:59;;;;;;;31.88;30.42;;;;;;;;;;4209944;28;19921;-65
2024/01/17 10:55:04;;;;;;;32.80;31.42;;;;;;;;;;4208692;28;20090;-65
2024/01/17 10:57:07;;;;;;;30.85;29.25;;;;;;;;;;4209502;28;20055;-65
2024/01/17 10:59:10;;;;;;;27.80;26.92;;;;;;;;;;4207107;28;20040;-66
2024/01/17 11:01:14;;;;;;;28.73;27.63;;;;;;;;;;4210074;28;20081;-65
2024/01/17 11:03:28;;;;;;;29.08;28.08;;;;;;;;;;4209727;28;20036;-65
2024/01/17 11:05:33;;;;;;;30.83;29.42;;;;;;;;;;4203713;28;20044;-65
2024/01/17 11:07:35;;;;;;;31.95;30.38;;;;;;;;;;4200384;28;20041;-65
2024/01/17 11:09:37;;;;;;;;;;;;;;;;;;4213027;28;20036;-65
2024/01/17 11:11:39;;;;;;;30.10;28.80;;;;;;;;;;4209537;28;20368;-65
2024/01/17 11:13:42;;;;;;;31.33;30.15;;;;;;;;;;4207036;28;20376;-65
2024/01/17 11:15:44;;;;;;;30.95;29.80;;;;;;;;;;4214735;28;20430;-65
2024/01/17 11:17:46;;;;;;;30.38;29.42;;;;;;;;;;4215569;28;20403;-65
2024/01/17 11:19:49;;;;;;;30.00;29.08;;;;;;;;;;4215686;28;20071;-65
2024/01/17 11:21:50;;;;;;;;;;;;;;;;;;4211240;28;20086;-66
2024/01/17 11:24:03;;;;;;;31.08;29.83;;;;;;;;;;4201211;28;20589;-65
2024/01/17 11:26:24;;;;;;;32.88;31.42;;;;;;;;;;4204637;28;20075;-65
2024/01/17 11:28:38;;;;;;;32.92;31.52;;;;;;;;;;4202391;28;20068;-65
2024/01/17 11:30:40;;;;;;;32.10;30.80;;;;;;;;;;4211486;28;20067;-65
2024/01/17 11:32:57;;;;;;;34.30;32.50;;;;;;;;;;4216747;28;20119;-65
2024/01/17 11:34:58;;;;;;;33.00;31.30;;;;;;;;;;4232463;28;20082;-65
2024/01/17 11:37:00;;;;;;;33.20;31.67;;;;;;;;;;4219298;28;20032;-65
2024/01/17 11:39:04;;;;;;;33.27;31.80;;;;;;;;;;4215536;28;20339;-65
2024/01/17 11:41:07;;;;;;;31.80;30.63;;;;;;;;;;4215371;28;20047;-66
2024/01/17 11:43:09;;;;;;;;;;;;;;;;;;4215781;28;20036;-66
2024/01/17 11:45:11;;;;;;;33.17;31.92;;;;;;;;;;4209710;28;19924;-66
2024/01/17 11:47:20;;;;;;;32.95;31.58;;;;;;;;;;4202400;28;20041;-66
2024/01/17 11:49:40;;;;;;;33.40;31.40;;;;;;;;;;4200842;28;20124;-66
2024/01/17 11:51:43;;;;;;;32.35;30.95;;;;;;;;;;4204782;28;20038;-65
2024/01/17 11:53:46;;;;;;;33.10;31.80;;;;;;;;;;4203153;28;20110;-66
2024/01/17 11:55:51;;;;;;;32.25;30.80;;;;;;;;;;4199261;28;20041;-65
2024/01/17 11:57:53;;;;;;;30.40;28.90;;;;;;;;;;4198424;28;20452;-66
2024/01/17 12:00:14;;;;;;;31.90;30.70;;;;;;;;;;4198506;28;20044;-65
2024/01/17 12:02:38;;;;;;;29.52;28.63;;;;;;;;;;4206778;28;20036;-66
2024/01/17 12:04:44;;;;;;;31.65;30.35;;;;;;;;;;4200657;28;20047;-66
2024/01/17 12:06:50;;;;;;;30.33;29.08;;;;;;;;;;4204455;28;20094;-65
2024/01/17 12:08:52;;;;;;;30.35;28.73;;;;;;;;;;4206747;28;20526;-66
2024/01/17 12:10:55;;;;;;;30.73;29.17;;;;;;;;;;4207699;28;20127;-65
2024/01/17 12:12:57;;;;;;;30.48;29.55;;;;;;;;;;4201127;28;20040;-66
2024/01/17 12:14:59;;;;;;;31.55;30.35;;;;;;;;;;4197761;28;20143;-65
2024/01/17 12:17:01;;;;;;;30.13;29.10;;;;;;;;;;4197837;28;20036;-65
2024/01/17 12:19:03;;;;;;;32.33;30.67;;;;;;;;;;4198152;28;20040;-65
2024/01/17 12:21:06;;;;;;;29.50;28.45;;;;;;;;;;4196356;28;20147;-65
2024/01/17 12:23:08;;;;;;;29.50;28.02;;;;;;;;;;4198043;28;20131;-65
2024/01/17 12:25:10;;;;;;;29.52;28.67;;;;;;;;;;4197749;28;20040;-66
2024/01/17 12:27:12;;;;;;;30.03;28.73;;;;;;;;;;4207145;28;20036;-66
2024/01/17 12:29:14;;;;;;;27.75;26.98;;;;;;;;;;4198215;28;20045;-66